Accueil
Images satellite Prévisions 10 joursClimatMétéo marine Cyclones Foudre AéroportsFAQ Actualités A propos
Météo : Europe Afrique Amérique du Nord Amérique du Sud Asie Australie-Océanie Autres
Langues Contact

Asunción, Paraguay

Aéroport international Silvio Pettirossi

latitude: 25-16S, longitude: 057-38W, altitude: 101 m


METAR: SGAS 310900Z 05009KT CAVOK 22/15 Q1010
TAF: SGAS 310500Z 3106/0106 05010KT CAVOK TX32/3119Z TN21/3110Z BECMG 3115/3118 05015KT CAVOK

Heure: 05:20 (09:20 UTC)

Observation

Le bulletin a été fait il y a 20 minutes, à 09:00 UTC
Vent 9 kt de nord-est
Température 22°C
Humidité 65%
Pression 1010 hPa
Visibilité 10 km ou plus
pas de nuages en-dessous de 1500 mètres et pas de cumulonimbus.

Changer d'unités

Prévision

Le bulletin a été fait il y a 4 heures et 20 minutes, à 05:00 UTC
Prévision valable du 31 à 06 UTC au 01 à 06 UTC
Vent 10 kt de nord-est
Visibilité 10 km ou plus
pas de nuages en-dessous de 1500 mètres et pas de cumulonimbus.
Evoluant progressivement
du 31 à 15 UTC au 31 à 18 UTC
Vent 15 kt de nord-est
Visibilité 10 km ou plus
pas de nuages en-dessous de 1500 mètres et pas de cumulonimbus.
Les informations qui figurent sur ce site font l'objet d'une clause de non-responsabilité
Météo : Europe Afrique Amérique du Nord Amérique du Sud Asie Australie-Océanie Autres
Images satellite Prévisions 10 joursClimatMétéo marine Cyclones Foudre AéroportsFAQ Langues Contact Actualités A propos